sensor_id;sensor_type;location;lat;lon;timestamp;P1;durP1;ratioP1;P2;durP2;ratioP2
63189;SDS011;49286;44.460;26.114;2023-01-05T00:01:25;24.25;;;16.90;;
63189;SDS011;49286;44.460;26.114;2023-01-05T00:03:51;29.73;;;16.40;;
63189;SDS011;49286;44.460;26.114;2023-01-05T00:06:16;25.80;;;16.50;;
63189;SDS011;49286;44.460;26.114;2023-01-05T00:08:42;29.48;;;18.75;;
63189;SDS011;49286;44.460;26.114;2023-01-05T00:11:09;30.92;;;18.90;;
63189;SDS011;49286;44.460;26.114;2023-01-05T00:13:58;25.92;;;16.25;;
63189;SDS011;49286;44.460;26.114;2023-01-05T00:16:42;23.30;;;14.98;;
63189;SDS011;49286;44.460;26.114;2023-01-05T00:19:27;22.05;;;15.38;;
63189;SDS011;49286;44.460;26.114;2023-01-05T00:22:18;28.85;;;17.10;;
63189;SDS011;49286;44.460;26.114;2023-01-05T00:25:07;29.50;;;14.40;;
63189;SDS011;49286;44.460;26.114;2023-01-05T00:27:38;25.65;;;16.42;;
63189;SDS011;49286;44.460;26.114;2023-01-05T00:30:05;25.35;;;15.07;;
63189;SDS011;49286;44.460;26.114;2023-01-05T00:32:31;31.30;;;15.73;;
63189;SDS011;49286;44.460;26.114;2023-01-05T00:34:57;25.17;;;17.88;;
63189;SDS011;49286;44.460;26.114;2023-01-05T00:37:24;22.92;;;15.75;;
63189;SDS011;49286;44.460;26.114;2023-01-05T00:39:51;31.30;;;17.58;;
63189;SDS011;49286;44.460;26.114;2023-01-05T00:42:17;29.27;;;17.55;;
63189;SDS011;49286;44.460;26.114;2023-01-05T00:44:43;26.10;;;16.73;;
63189;SDS011;49286;44.460;26.114;2023-01-05T00:47:09;36.20;;;14.23;;
63189;SDS011;49286;44.460;26.114;2023-01-05T00:49:34;22.42;;;14.38;;
63189;SDS011;49286;44.460;26.114;2023-01-05T00:52:00;24.02;;;16.15;;
63189;SDS011;49286;44.460;26.114;2023-01-05T00:54:26;28.55;;;17.33;;
63189;SDS011;49286;44.460;26.114;2023-01-05T00:56:51;29.85;;;19.30;;
63189;SDS011;49286;44.460;26.114;2023-01-05T00:59:17;26.45;;;16.08;;
63189;SDS011;49286;44.460;26.114;2023-01-05T01:01:49;23.77;;;16.35;;
63189;SDS011;49286;44.460;26.114;2023-01-05T01:04:16;31.85;;;18.30;;
63189;SDS011;49286;44.460;26.114;2023-01-05T01:06:42;25.25;;;16.45;;
63189;SDS011;49286;44.460;26.114;2023-01-05T01:09:08;30.60;;;19.55;;
63189;SDS011;49286;44.460;26.114;2023-01-05T01:11:34;27.70;;;18.23;;
63189;SDS011;49286;44.460;26.114;2023-01-05T01:14:00;26.75;;;16.67;;
63189;SDS011;49286;44.460;26.114;2023-01-05T01:16:25;29.92;;;18.95;;
63189;SDS011;49286;44.460;26.114;2023-01-05T01:18:51;31.35;;;15.98;;
63189;SDS011;49286;44.460;26.114;2023-01-05T01:21:17;41.72;;;16.45;;
63189;SDS011;49286;44.460;26.114;2023-01-05T01:23:42;28.45;;;17.52;;
63189;SDS011;49286;44.460;26.114;2023-01-05T01:26:09;24.48;;;14.88;;
63189;SDS011;49286;44.460;26.114;2023-01-05T01:28:36;27.20;;;17.23;;
63189;SDS011;49286;44.460;26.114;2023-01-05T01:31:03;29.85;;;15.15;;
63189;SDS011;49286;44.460;26.114;2023-01-05T01:33:29;28.55;;;18.52;;
63189;SDS011;49286;44.460;26.114;2023-01-05T01:35:55;27.63;;;16.80;;
63189;SDS011;49286;44.460;26.114;2023-01-05T01:38:21;30.95;;;16.33;;
63189;SDS011;49286;44.460;26.114;2023-01-05T01:40:47;32.30;;;18.15;;
63189;SDS011;49286;44.460;26.114;2023-01-05T01:43:17;29.38;;;18.17;;
63189;SDS011;49286;44.460;26.114;2023-01-05T01:45:44;30.10;;;16.38;;
63189;SDS011;49286;44.460;26.114;2023-01-05T01:48:13;26.33;;;16.83;;
63189;SDS011;49286;44.460;26.114;2023-01-05T01:50:43;35.22;;;16.00;;
63189;SDS011;49286;44.460;26.114;2023-01-05T01:53:25;25.85;;;15.55;;
63189;SDS011;49286;44.460;26.114;2023-01-05T01:55:56;34.33;;;17.63;;
63189;SDS011;49286;44.460;26.114;2023-01-05T01:58:25;41.88;;;18.75;;
63189;SDS011;49286;44.460;26.114;2023-01-05T02:00:54;28.45;;;15.57;;
63189;SDS011;49286;44.460;26.114;2023-01-05T02:03:20;27.90;;;16.35;;
63189;SDS011;49286;44.460;26.114;2023-01-05T02:05:46;33.45;;;18.88;;
63189;SDS011;49286;44.460;26.114;2023-01-05T02:08:12;26.75;;;17.30;;
63189;SDS011;49286;44.460;26.114;2023-01-05T02:21:14;25.88;;;15.55;;
63189;SDS011;49286;44.460;26.114;2023-01-05T02:24:11;25.35;;;15.35;;
63189;SDS011;49286;44.460;26.114;2023-01-05T02:32:22;22.67;;;16.27;;
63189;SDS011;49286;44.460;26.114;2023-01-05T02:37:46;25.60;;;15.35;;
63189;SDS011;49286;44.460;26.114;2023-01-05T02:40:23;29.80;;;16.33;;
63189;SDS011;49286;44.460;26.114;2023-01-05T02:42:53;27.30;;;16.95;;
63189;SDS011;49286;44.460;26.114;2023-01-05T02:45:21;28.95;;;17.00;;
63189;SDS011;49286;44.460;26.114;2023-01-05T02:47:48;29.58;;;16.38;;
63189;SDS011;49286;44.460;26.114;2023-01-05T02:50:15;27.30;;;16.65;;
63189;SDS011;49286;44.460;26.114;2023-01-05T02:53:05;27.95;;;16.80;;
63189;SDS011;49286;44.460;26.114;2023-01-05T03:00:47;34.30;;;17.52;;
63189;SDS011;49286;44.460;26.114;2023-01-05T03:03:47;25.65;;;16.15;;
63189;SDS011;49286;44.460;26.114;2023-01-05T03:06:20;33.35;;;19.70;;
63189;SDS011;49286;44.460;26.114;2023-01-05T03:08:54;31.83;;;15.25;;
63189;SDS011;49286;44.460;26.114;2023-01-05T03:11:22;30.73;;;16.83;;
63189;SDS011;49286;44.460;26.114;2023-01-05T03:14:15;32.65;;;18.35;;
63189;SDS011;49286;44.460;26.114;2023-01-05T03:16:55;27.67;;;15.23;;
63189;SDS011;49286;44.460;26.114;2023-01-05T03:19:24;30.75;;;16.92;;
63189;SDS011;49286;44.460;26.114;2023-01-05T03:24:55;26.05;;;16.63;;
63189;SDS011;49286;44.460;26.114;2023-01-05T03:27:39;26.13;;;15.52;;
63189;SDS011;49286;44.460;26.114;2023-01-05T03:30:28;24.40;;;13.82;;
63189;SDS011;49286;44.460;26.114;2023-01-05T03:36:20;24.50;;;14.10;;
63189;SDS011;49286;44.460;26.114;2023-01-05T03:38:50;27.45;;;14.35;;
63189;SDS011;49286;44.460;26.114;2023-01-05T03:41:18;27.17;;;15.68;;
63189;SDS011;49286;44.460;26.114;2023-01-05T03:43:45;25.23;;;17.35;;
63189;SDS011;49286;44.460;26.114;2023-01-05T03:46:19;29.88;;;16.50;;
63189;SDS011;49286;44.460;26.114;2023-01-05T03:48:46;29.92;;;16.70;;
63189;SDS011;49286;44.460;26.114;2023-01-05T03:51:13;25.55;;;16.02;;
63189;SDS011;49286;44.460;26.114;2023-01-05T03:53:39;27.90;;;17.38;;
63189;SDS011;49286;44.460;26.114;2023-01-05T03:56:05;28.02;;;16.90;;
63189;SDS011;49286;44.460;26.114;2023-01-05T03:58:30;28.38;;;16.52;;
63189;SDS011;49286;44.460;26.114;2023-01-05T04:00:56;25.48;;;17.60;;
63189;SDS011;49286;44.460;26.114;2023-01-05T04:03:21;27.13;;;15.95;;
63189;SDS011;49286;44.460;26.114;2023-01-05T04:05:47;28.30;;;18.55;;
63189;SDS011;49286;44.460;26.114;2023-01-05T04:08:12;31.80;;;20.98;;
63189;SDS011;49286;44.460;26.114;2023-01-05T04:10:38;24.65;;;16.85;;
63189;SDS011;49286;44.460;26.114;2023-01-05T04:13:03;31.15;;;18.58;;
63189;SDS011;49286;44.460;26.114;2023-01-05T04:15:29;29.05;;;18.17;;
63189;SDS011;49286;44.460;26.114;2023-01-05T04:17:54;31.33;;;19.90;;
63189;SDS011;49286;44.460;26.114;2023-01-05T04:20:20;33.70;;;17.92;;
63189;SDS011;49286;44.460;26.114;2023-01-05T04:22:45;34.83;;;19.67;;
63189;SDS011;49286;44.460;26.114;2023-01-05T04:25:11;38.08;;;20.05;;
63189;SDS011;49286;44.460;26.114;2023-01-05T04:27:36;47.00;;;19.85;;
63189;SDS011;49286;44.460;26.114;2023-01-05T04:30:02;33.78;;;19.13;;
63189;SDS011;49286;44.460;26.114;2023-01-05T04:32:28;35.25;;;20.05;;
63189;SDS011;49286;44.460;26.114;2023-01-05T04:34:53;37.10;;;22.35;;
63189;SDS011;49286;44.460;26.114;2023-01-05T04:37:19;37.15;;;20.95;;
63189;SDS011;49286;44.460;26.114;2023-01-05T04:39:44;36.40;;;18.88;;
63189;SDS011;49286;44.460;26.114;2023-01-05T04:42:10;34.38;;;17.98;;
63189;SDS011;49286;44.460;26.114;2023-01-05T04:44:35;36.67;;;20.75;;
63189;SDS011;49286;44.460;26.114;2023-01-05T04:47:01;29.88;;;18.75;;
63189;SDS011;49286;44.460;26.114;2023-01-05T04:49:26;34.75;;;18.73;;
63189;SDS011;49286;44.460;26.114;2023-01-05T04:51:51;35.95;;;19.30;;
63189;SDS011;49286;44.460;26.114;2023-01-05T04:54:17;33.38;;;16.77;;
63189;SDS011;49286;44.460;26.114;2023-01-05T04:56:42;29.25;;;17.83;;
63189;SDS011;49286;44.460;26.114;2023-01-05T04:59:08;25.98;;;17.13;;
63189;SDS011;49286;44.460;26.114;2023-01-05T05:01:34;28.55;;;17.80;;
63189;SDS011;49286;44.460;26.114;2023-01-05T05:03:59;24.50;;;15.05;;
63189;SDS011;49286;44.460;26.114;2023-01-05T05:06:25;25.65;;;17.73;;
63189;SDS011;49286;44.460;26.114;2023-01-05T05:08:50;34.55;;;16.70;;
63189;SDS011;49286;44.460;26.114;2023-01-05T05:11:16;29.65;;;16.05;;
63189;SDS011;49286;44.460;26.114;2023-01-05T05:13:42;25.23;;;14.43;;
63189;SDS011;49286;44.460;26.114;2023-01-05T05:16:07;30.58;;;17.08;;
63189;SDS011;49286;44.460;26.114;2023-01-05T05:18:33;28.88;;;15.70;;
63189;SDS011;49286;44.460;26.114;2023-01-05T05:20:58;27.08;;;16.08;;
63189;SDS011;49286;44.460;26.114;2023-01-05T05:23:24;25.02;;;18.10;;
63189;SDS011;49286;44.460;26.114;2023-01-05T05:25:50;31.98;;;16.63;;
63189;SDS011;49286;44.460;26.114;2023-01-05T05:28:16;26.90;;;16.77;;
63189;SDS011;49286;44.460;26.114;2023-01-05T05:30:42;26.48;;;15.07;;
63189;SDS011;49286;44.460;26.114;2023-01-05T05:33:07;31.05;;;17.38;;
63189;SDS011;49286;44.460;26.114;2023-01-05T05:35:33;27.05;;;16.50;;
63189;SDS011;49286;44.460;26.114;2023-01-05T05:37:58;30.83;;;14.45;;
63189;SDS011;49286;44.460;26.114;2023-01-05T05:40:25;25.83;;;14.60;;
63189;SDS011;49286;44.460;26.114;2023-01-05T05:42:52;33.22;;;18.23;;
63189;SDS011;49286;44.460;26.114;2023-01-05T05:45:18;30.83;;;17.60;;
63189;SDS011;49286;44.460;26.114;2023-01-05T05:47:43;37.30;;;15.43;;
63189;SDS011;49286;44.460;26.114;2023-01-05T05:50:09;29.02;;;16.25;;
63189;SDS011;49286;44.460;26.114;2023-01-05T05:52:34;32.58;;;17.95;;
63189;SDS011;49286;44.460;26.114;2023-01-05T05:55:00;34.70;;;18.35;;
63189;SDS011;49286;44.460;26.114;2023-01-05T05:57:25;35.33;;;18.02;;
63189;SDS011;49286;44.460;26.114;2023-01-05T05:59:51;34.55;;;18.00;;
63189;SDS011;49286;44.460;26.114;2023-01-05T06:02:16;42.47;;;20.88;;
63189;SDS011;49286;44.460;26.114;2023-01-05T06:04:44;32.42;;;18.05;;
63189;SDS011;49286;44.460;26.114;2023-01-05T06:07:11;38.65;;;20.20;;
63189;SDS011;49286;44.460;26.114;2023-01-05T06:09:36;46.90;;;21.02;;
63189;SDS011;49286;44.460;26.114;2023-01-05T06:12:02;58.95;;;22.20;;
63189;SDS011;49286;44.460;26.114;2023-01-05T06:14:27;44.47;;;18.58;;
63189;SDS011;49286;44.460;26.114;2023-01-05T06:16:53;42.13;;;22.60;;
63189;SDS011;49286;44.460;26.114;2023-01-05T06:19:18;47.90;;;23.50;;
63189;SDS011;49286;44.460;26.114;2023-01-05T06:21:44;47.90;;;22.52;;
63189;SDS011;49286;44.460;26.114;2023-01-05T06:24:09;51.10;;;22.27;;
63189;SDS011;49286;44.460;26.114;2023-01-05T06:26:36;42.85;;;23.30;;
63189;SDS011;49286;44.460;26.114;2023-01-05T06:29:01;81.10;;;24.23;;
63189;SDS011;49286;44.460;26.114;2023-01-05T06:31:27;59.50;;;24.48;;
63189;SDS011;49286;44.460;26.114;2023-01-05T06:33:52;49.80;;;23.52;;
63189;SDS011;49286;44.460;26.114;2023-01-05T06:36:18;45.80;;;23.77;;
63189;SDS011;49286;44.460;26.114;2023-01-05T06:38:43;54.58;;;25.95;;
63189;SDS011;49286;44.460;26.114;2023-01-05T06:41:09;74.75;;;24.83;;
63189;SDS011;49286;44.460;26.114;2023-01-05T06:43:34;43.88;;;22.83;;
63189;SDS011;49286;44.460;26.114;2023-01-05T06:46:00;57.63;;;21.90;;
63189;SDS011;49286;44.460;26.114;2023-01-05T06:48:25;41.20;;;21.45;;
63189;SDS011;49286;44.460;26.114;2023-01-05T06:50:51;53.55;;;23.30;;
63189;SDS011;49286;44.460;26.114;2023-01-05T06:53:17;46.65;;;22.17;;
63189;SDS011;49286;44.460;26.114;2023-01-05T06:55:43;46.00;;;24.85;;
63189;SDS011;49286;44.460;26.114;2023-01-05T06:58:09;44.92;;;22.20;;
63189;SDS011;49286;44.460;26.114;2023-01-05T07:00:35;43.83;;;23.42;;
63189;SDS011;49286;44.460;26.114;2023-01-05T07:03:00;44.53;;;23.90;;
63189;SDS011;49286;44.460;26.114;2023-01-05T07:05:26;48.30;;;22.73;;
63189;SDS011;49286;44.460;26.114;2023-01-05T07:07:51;40.08;;;20.92;;
63189;SDS011;49286;44.460;26.114;2023-01-05T07:10:18;39.55;;;20.55;;
63189;SDS011;49286;44.460;26.114;2023-01-05T07:12:43;44.17;;;22.38;;
63189;SDS011;49286;44.460;26.114;2023-01-05T07:15:09;37.28;;;20.17;;
63189;SDS011;49286;44.460;26.114;2023-01-05T07:17:34;47.85;;;22.42;;
63189;SDS011;49286;44.460;26.114;2023-01-05T07:20:00;48.10;;;22.98;;
63189;SDS011;49286;44.460;26.114;2023-01-05T07:22:26;34.00;;;20.95;;
63189;SDS011;49286;44.460;26.114;2023-01-05T07:24:55;31.02;;;16.95;;
63189;SDS011;49286;44.460;26.114;2023-01-05T07:27:23;44.40;;;23.83;;
63189;SDS011;49286;44.460;26.114;2023-01-05T07:29:49;38.78;;;21.45;;
63189;SDS011;49286;44.460;26.114;2023-01-05T07:32:15;33.80;;;18.77;;
63189;SDS011;49286;44.460;26.114;2023-01-05T07:34:40;34.15;;;21.55;;
63189;SDS011;49286;44.460;26.114;2023-01-05T07:37:06;33.50;;;20.55;;
63189;SDS011;49286;44.460;26.114;2023-01-05T07:39:31;35.00;;;21.50;;
63189;SDS011;49286;44.460;26.114;2023-01-05T07:41:57;31.15;;;19.25;;
63189;SDS011;49286;44.460;26.114;2023-01-05T07:44:22;32.15;;;19.55;;
63189;SDS011;49286;44.460;26.114;2023-01-05T07:46:48;35.28;;;19.95;;
63189;SDS011;49286;44.460;26.114;2023-01-05T07:49:13;33.97;;;21.50;;
63189;SDS011;49286;44.460;26.114;2023-01-05T07:51:39;37.53;;;19.50;;
63189;SDS011;49286;44.460;26.114;2023-01-05T07:54:05;33.03;;;18.58;;
63189;SDS011;49286;44.460;26.114;2023-01-05T07:56:30;38.30;;;22.70;;
63189;SDS011;49286;44.460;26.114;2023-01-05T07:58:56;40.85;;;20.67;;
63189;SDS011;49286;44.460;26.114;2023-01-05T08:01:21;32.72;;;18.15;;
63189;SDS011;49286;44.460;26.114;2023-01-05T08:03:47;28.35;;;18.58;;
63189;SDS011;49286;44.460;26.114;2023-01-05T08:06:13;48.40;;;21.10;;
63189;SDS011;49286;44.460;26.114;2023-01-05T08:08:40;34.33;;;20.25;;
63189;SDS011;49286;44.460;26.114;2023-01-05T08:11:07;35.92;;;19.38;;
63189;SDS011;49286;44.460;26.114;2023-01-05T08:13:33;35.92;;;19.27;;
63189;SDS011;49286;44.460;26.114;2023-01-05T08:16:19;42.70;;;22.75;;
63189;SDS011;49286;44.460;26.114;2023-01-05T08:18:45;30.98;;;18.58;;
63189;SDS011;49286;44.460;26.114;2023-01-05T08:21:11;29.63;;;18.00;;
63189;SDS011;49286;44.460;26.114;2023-01-05T08:23:37;34.28;;;20.15;;
63189;SDS011;49286;44.460;26.114;2023-01-05T08:26:06;28.75;;;18.60;;
63189;SDS011;49286;44.460;26.114;2023-01-05T08:28:38;26.67;;;18.42;;
63189;SDS011;49286;44.460;26.114;2023-01-05T08:31:05;28.55;;;17.83;;
63189;SDS011;49286;44.460;26.114;2023-01-05T08:33:32;30.27;;;17.35;;
63189;SDS011;49286;44.460;26.114;2023-01-05T08:35:58;29.85;;;16.17;;
63189;SDS011;49286;44.460;26.114;2023-01-05T08:38:24;26.10;;;16.50;;
63189;SDS011;49286;44.460;26.114;2023-01-05T08:40:50;31.85;;;19.73;;
63189;SDS011;49286;44.460;26.114;2023-01-05T08:43:16;32.92;;;18.77;;
63189;SDS011;49286;44.460;26.114;2023-01-05T08:45:41;31.17;;;18.20;;
63189;SDS011;49286;44.460;26.114;2023-01-05T08:48:07;33.70;;;19.58;;
63189;SDS011;49286;44.460;26.114;2023-01-05T08:50:34;28.75;;;17.25;;
63189;SDS011;49286;44.460;26.114;2023-01-05T08:53:00;35.90;;;19.63;;
63189;SDS011;49286;44.460;26.114;2023-01-05T08:55:25;31.60;;;19.25;;
63189;SDS011;49286;44.460;26.114;2023-01-05T08:57:51;28.77;;;17.27;;
63189;SDS011;49286;44.460;26.114;2023-01-05T09:00:16;33.85;;;19.23;;
63189;SDS011;49286;44.460;26.114;2023-01-05T09:02:43;29.00;;;17.80;;
63189;SDS011;49286;44.460;26.114;2023-01-05T09:05:08;30.42;;;17.52;;
63189;SDS011;49286;44.460;26.114;2023-01-05T09:07:34;30.35;;;17.92;;
63189;SDS011;49286;44.460;26.114;2023-01-05T09:09:59;27.75;;;19.50;;
63189;SDS011;49286;44.460;26.114;2023-01-05T09:12:25;27.75;;;17.50;;
63189;SDS011;49286;44.460;26.114;2023-01-05T09:14:50;32.22;;;18.33;;
63189;SDS011;49286;44.460;26.114;2023-01-05T09:17:18;35.13;;;20.08;;
63189;SDS011;49286;44.460;26.114;2023-01-05T09:19:43;29.23;;;19.55;;
63189;SDS011;49286;44.460;26.114;2023-01-05T09:22:09;27.30;;;17.85;;
63189;SDS011;49286;44.460;26.114;2023-01-05T09:24:34;31.00;;;18.33;;
63189;SDS011;49286;44.460;26.114;2023-01-05T09:27:00;24.02;;;18.05;;
63189;SDS011;49286;44.460;26.114;2023-01-05T09:29:25;33.28;;;20.27;;
63189;SDS011;49286;44.460;26.114;2023-01-05T09:31:51;30.63;;;20.30;;
63189;SDS011;49286;44.460;26.114;2023-01-05T09:34:16;26.30;;;17.77;;
63189;SDS011;49286;44.460;26.114;2023-01-05T09:36:43;29.67;;;18.10;;
63189;SDS011;49286;44.460;26.114;2023-01-05T09:39:08;27.08;;;16.90;;
63189;SDS011;49286;44.460;26.114;2023-01-05T09:41:38;31.42;;;18.15;;
63189;SDS011;49286;44.460;26.114;2023-01-05T09:46:48;25.92;;;16.75;;
63189;SDS011;49286;44.460;26.114;2023-01-05T09:49:15;30.23;;;18.27;;
63189;SDS011;49286;44.460;26.114;2023-01-05T09:51:45;30.70;;;17.92;;
63189;SDS011;49286;44.460;26.114;2023-01-05T09:54:16;29.25;;;19.95;;
63189;SDS011;49286;44.460;26.114;2023-01-05T09:56:46;30.50;;;20.30;;
63189;SDS011;49286;44.460;26.114;2023-01-05T09:59:18;21.90;;;16.23;;
63189;SDS011;49286;44.460;26.114;2023-01-05T10:02:04;33.30;;;21.25;;
63189;SDS011;49286;44.460;26.114;2023-01-05T10:04:41;32.20;;;19.60;;
63189;SDS011;49286;44.460;26.114;2023-01-05T10:07:07;30.50;;;18.25;;
63189;SDS011;49286;44.460;26.114;2023-01-05T10:10:14;32.35;;;20.23;;
63189;SDS011;49286;44.460;26.114;2023-01-05T10:12:50;30.08;;;21.27;;
63189;SDS011;49286;44.460;26.114;2023-01-05T10:15:52;43.95;;;22.08;;
63189;SDS011;49286;44.460;26.114;2023-01-05T10:18:20;35.13;;;22.90;;
63189;SDS011;49286;44.460;26.114;2023-01-05T10:26:34;31.88;;;20.13;;
63189;SDS011;49286;44.460;26.114;2023-01-05T10:29:18;32.30;;;20.88;;
63189;SDS011;49286;44.460;26.114;2023-01-05T10:32:01;33.75;;;21.48;;
63189;SDS011;49286;44.460;26.114;2023-01-05T10:34:43;40.15;;;22.45;;
63189;SDS011;49286;44.460;26.114;2023-01-05T10:39:54;30.60;;;20.30;;
63189;SDS011;49286;44.460;26.114;2023-01-05T10:45:19;31.92;;;20.38;;
63189;SDS011;49286;44.460;26.114;2023-01-05T10:47:45;37.08;;;26.88;;
63189;SDS011;49286;44.460;26.114;2023-01-05T10:53:10;33.50;;;21.92;;
63189;SDS011;49286;44.460;26.114;2023-01-05T10:58:29;35.72;;;19.45;;
63189;SDS011;49286;44.460;26.114;2023-01-05T11:01:04;34.35;;;21.45;;
63189;SDS011;49286;44.460;26.114;2023-01-05T11:03:40;32.90;;;19.95;;
63189;SDS011;49286;44.460;26.114;2023-01-05T11:06:17;36.92;;;26.58;;
63189;SDS011;49286;44.460;26.114;2023-01-05T11:08:44;28.42;;;20.38;;
63189;SDS011;49286;44.460;26.114;2023-01-05T11:11:10;30.92;;;20.17;;
63189;SDS011;49286;44.460;26.114;2023-01-05T11:13:46;37.17;;;21.23;;
63189;SDS011;49286;44.460;26.114;2023-01-05T11:16:14;42.72;;;26.05;;
63189;SDS011;49286;44.460;26.114;2023-01-05T11:18:46;50.03;;;21.92;;
63189;SDS011;49286;44.460;26.114;2023-01-05T11:21:16;26.08;;;18.13;;
63189;SDS011;49286;44.460;26.114;2023-01-05T11:31:40;31.00;;;21.52;;
63189;SDS011;49286;44.460;26.114;2023-01-05T11:39:52;29.35;;;19.42;;
63189;SDS011;49286;44.460;26.114;2023-01-05T11:44:54;35.03;;;27.98;;
63189;SDS011;49286;44.460;26.114;2023-01-05T11:47:24;31.20;;;20.10;;
63189;SDS011;49286;44.460;26.114;2023-01-05T11:52:36;38.47;;;26.58;;
63189;SDS011;49286;44.460;26.114;2023-01-05T11:55:34;29.52;;;20.52;;
63189;SDS011;49286;44.460;26.114;2023-01-05T11:58:17;37.45;;;29.38;;
63189;SDS011;49286;44.460;26.114;2023-01-05T12:01:11;47.05;;;26.23;;
63189;SDS011;49286;44.460;26.114;2023-01-05T12:12:31;31.33;;;22.02;;
63189;SDS011;49286;44.460;26.114;2023-01-05T12:25:32;39.03;;;25.77;;
63189;SDS011;49286;44.460;26.114;2023-01-05T12:30:38;40.17;;;26.73;;
63189;SDS011;49286;44.460;26.114;2023-01-05T12:33:17;39.78;;;29.02;;
63189;SDS011;49286;44.460;26.114;2023-01-05T12:50:22;36.60;;;26.77;;
63189;SDS011;49286;44.460;26.114;2023-01-05T12:55:58;39.42;;;28.25;;
63189;SDS011;49286;44.460;26.114;2023-01-05T12:58:52;39.50;;;28.20;;
63189;SDS011;49286;44.460;26.114;2023-01-05T13:01:26;39.17;;;25.10;;
63189;SDS011;49286;44.460;26.114;2023-01-05T13:03:59;32.42;;;24.40;;
63189;SDS011;49286;44.460;26.114;2023-01-05T13:06:34;35.13;;;24.63;;
63189;SDS011;49286;44.460;26.114;2023-01-05T13:09:11;27.73;;;21.85;;
63189;SDS011;49286;44.460;26.114;2023-01-05T13:12:23;35.17;;;24.77;;
63189;SDS011;49286;44.460;26.114;2023-01-05T13:14:32;42.60;;;25.23;;
63189;SDS011;49286;44.460;26.114;2023-01-05T13:17:05;34.83;;;25.73;;
63189;SDS011;49286;44.460;26.114;2023-01-05T13:19:40;33.97;;;23.83;;
63189;SDS011;49286;44.460;26.114;2023-01-05T13:22:22;29.50;;;23.13;;
63189;SDS011;49286;44.460;26.114;2023-01-05T13:27:21;33.33;;;22.67;;
63189;SDS011;49286;44.460;26.114;2023-01-05T13:29:47;29.42;;;22.50;;
63189;SDS011;49286;44.460;26.114;2023-01-05T13:32:21;36.65;;;23.70;;
63189;SDS011;49286;44.460;26.114;2023-01-05T13:58:51;38.75;;;23.75;;
63189;SDS011;49286;44.460;26.114;2023-01-05T14:04:05;59.78;;;27.20;;
63189;SDS011;49286;44.460;26.114;2023-01-05T14:09:38;37.63;;;25.00;;
63189;SDS011;49286;44.460;26.114;2023-01-05T14:26:03;37.08;;;24.15;;
63189;SDS011;49286;44.460;26.114;2023-01-05T14:33:52;34.55;;;25.75;;
63189;SDS011;49286;44.460;26.114;2023-01-05T14:39:22;34.88;;;25.10;;
63189;SDS011;49286;44.460;26.114;2023-01-05T14:42:05;33.63;;;23.63;;
63189;SDS011;49286;44.460;26.114;2023-01-05T14:44:48;41.30;;;25.13;;
63189;SDS011;49286;44.460;26.114;2023-01-05T14:47:16;39.05;;;25.45;;
63189;SDS011;49286;44.460;26.114;2023-01-05T14:49:57;41.50;;;25.65;;
63189;SDS011;49286;44.460;26.114;2023-01-05T14:55:22;37.00;;;26.13;;
63189;SDS011;49286;44.460;26.114;2023-01-05T14:57:54;38.95;;;27.38;;
63189;SDS011;49286;44.460;26.114;2023-01-05T15:00:24;39.75;;;27.92;;
63189;SDS011;49286;44.460;26.114;2023-01-05T15:03:04;43.28;;;29.23;;
63189;SDS011;49286;44.460;26.114;2023-01-05T15:05:37;46.85;;;28.05;;
63189;SDS011;49286;44.460;26.114;2023-01-05T15:08:32;37.90;;;26.40;;
63189;SDS011;49286;44.460;26.114;2023-01-05T15:11:24;39.30;;;27.73;;
63189;SDS011;49286;44.460;26.114;2023-01-05T15:14:00;38.03;;;27.48;;
63189;SDS011;49286;44.460;26.114;2023-01-05T15:38:51;34.95;;;23.77;;
63189;SDS011;49286;44.460;26.114;2023-01-05T15:41:18;32.05;;;22.42;;
63189;SDS011;49286;44.460;26.114;2023-01-05T15:43:45;30.75;;;23.15;;
63189;SDS011;49286;44.460;26.114;2023-01-05T15:46:16;36.28;;;25.85;;
63189;SDS011;49286;44.460;26.114;2023-01-05T15:48:44;36.20;;;24.42;;
63189;SDS011;49286;44.460;26.114;2023-01-05T15:51:25;30.40;;;21.58;;
63189;SDS011;49286;44.460;26.114;2023-01-05T15:53:54;34.15;;;20.75;;
63189;SDS011;49286;44.460;26.114;2023-01-05T15:58:56;32.00;;;21.98;;
63189;SDS011;49286;44.460;26.114;2023-01-05T16:01:22;30.42;;;22.73;;
63189;SDS011;49286;44.460;26.114;2023-01-05T16:03:47;35.70;;;21.90;;
63189;SDS011;49286;44.460;26.114;2023-01-05T16:06:24;34.05;;;21.90;;
63189;SDS011;49286;44.460;26.114;2023-01-05T16:08:52;32.20;;;21.88;;
63189;SDS011;49286;44.460;26.114;2023-01-05T16:11:29;30.27;;;20.60;;
63189;SDS011;49286;44.460;26.114;2023-01-05T16:13:59;29.98;;;21.23;;
63189;SDS011;49286;44.460;26.114;2023-01-05T16:16:30;36.42;;;21.33;;
63189;SDS011;49286;44.460;26.114;2023-01-05T16:19:05;38.15;;;22.45;;
63189;SDS011;49286;44.460;26.114;2023-01-05T16:21:41;26.10;;;20.52;;
63189;SDS011;49286;44.460;26.114;2023-01-05T16:27:29;31.70;;;21.73;;
63189;SDS011;49286;44.460;26.114;2023-01-05T16:32:38;30.70;;;22.58;;
63189;SDS011;49286;44.460;26.114;2023-01-05T16:45:46;28.98;;;20.83;;
63189;SDS011;49286;44.460;26.114;2023-01-05T16:51:03;28.77;;;19.73;;
63189;SDS011;49286;44.460;26.114;2023-01-05T16:53:30;34.63;;;21.02;;
63189;SDS011;49286;44.460;26.114;2023-01-05T16:55:58;32.10;;;19.83;;
63189;SDS011;49286;44.460;26.114;2023-01-05T17:03:34;31.48;;;20.58;;
63189;SDS011;49286;44.460;26.114;2023-01-05T17:06:00;31.35;;;19.55;;
63189;SDS011;49286;44.460;26.114;2023-01-05T17:08:27;27.25;;;19.48;;
63189;SDS011;49286;44.460;26.114;2023-01-05T17:10:55;27.17;;;19.30;;
63189;SDS011;49286;44.460;26.114;2023-01-05T17:13:23;28.52;;;21.15;;
63189;SDS011;49286;44.460;26.114;2023-01-05T17:15:51;32.83;;;20.85;;
63189;SDS011;49286;44.460;26.114;2023-01-05T17:18:24;29.88;;;21.63;;
63189;SDS011;49286;44.460;26.114;2023-01-05T17:20:53;27.75;;;20.27;;
63189;SDS011;49286;44.460;26.114;2023-01-05T17:23:28;27.08;;;19.63;;
63189;SDS011;49286;44.460;26.114;2023-01-05T17:25:56;44.40;;;20.27;;
63189;SDS011;49286;44.460;26.114;2023-01-05T17:28:24;24.48;;;17.40;;
63189;SDS011;49286;44.460;26.114;2023-01-05T17:30:50;27.75;;;19.67;;
63189;SDS011;49286;44.460;26.114;2023-01-05T17:33:16;30.23;;;20.77;;
63189;SDS011;49286;44.460;26.114;2023-01-05T17:35:42;28.00;;;20.45;;
63189;SDS011;49286;44.460;26.114;2023-01-05T17:38:12;30.55;;;21.77;;
63189;SDS011;49286;44.460;26.114;2023-01-05T17:40:38;34.42;;;20.92;;
63189;SDS011;49286;44.460;26.114;2023-01-05T17:43:05;31.63;;;19.52;;
63189;SDS011;49286;44.460;26.114;2023-01-05T17:45:31;26.63;;;18.38;;
63189;SDS011;49286;44.460;26.114;2023-01-05T17:47:57;35.33;;;21.33;;
63189;SDS011;49286;44.460;26.114;2023-01-05T17:50:23;33.28;;;21.55;;
63189;SDS011;49286;44.460;26.114;2023-01-05T17:52:53;29.63;;;20.77;;
63189;SDS011;49286;44.460;26.114;2023-01-05T17:55:19;29.90;;;19.75;;
63189;SDS011;49286;44.460;26.114;2023-01-05T17:57:46;26.33;;;19.00;;